Time;durP1;ratioP1;P1;durP2;ratioP2;P2;SDS_P1;SDS_P2;PMS_P1;PMS_P2;Temp;Humidity;BMP_temperature;BMP_pressure;BME280_temperature;BME280_humidity;BME280_pressure;Samples;Min_cycle;Max_cycle;Signal;HPM_P1;HPM_P2
2023/07/22 00:00:14;;;;;;;;;;;;;;;15.12;76.01;101314.69;5053257;28;1216;-75
2023/07/22 00:02:39;;;;;;;;;;;;;;;15.07;76.53;101314.31;5044951;28;1205;-75
2023/07/22 00:05:04;;;;;;;;;;;;;;;15.05;76.85;101311.03;5045126;28;1364;-75
2023/07/22 00:07:30;;;;;;;;;;;;;;;15.04;76.90;101314.59;5047766;28;1039;-75
2023/07/22 00:09:55;;;;;;;;;;;;;;;15.03;76.79;101297.28;5048808;28;1385;-75
2023/07/22 00:12:24;;;;;;;;;;;;;;;15.09;76.73;101309.78;5051430;28;1959;-75
2023/07/22 00:14:50;;;;;;;;;;;;;;;15.16;76.58;101304.81;5027087;28;1656;-75
2023/07/22 00:17:15;;;;;;;;;;;;;;;15.21;76.48;101306.03;5048203;28;1325;-76
2023/07/22 00:19:40;;;;;;;;;;;;;;;15.25;76.48;101304.75;5048067;28;1264;-75
2023/07/22 00:22:06;;;;;;;;;;;;;;;15.28;76.51;101301.84;5046710;28;1303;-75
2023/07/22 00:24:31;;;;;;;;;;;;;;;15.31;76.08;101291.13;5042023;28;1105;-77
2023/07/22 00:26:56;;;;;;;;;;;;;;;15.33;76.24;101298.81;5045517;28;1019;-75
2023/07/22 00:29:21;;;;;;;;;;;;;;;15.32;76.11;101292.78;5049604;28;1153;-76
2023/07/22 00:31:47;;;;;;;;;;;;;;;15.28;76.16;101296.63;5030222;28;1961;-75
2023/07/22 00:34:12;;;;;;;;;;;;;;;15.26;76.10;101293.34;5051008;28;1116;-76
2023/07/22 00:36:37;;;;;;;;;;;;;;;15.26;76.10;101288.13;5045237;28;1550;-75
2023/07/22 00:39:03;;;;;;;;;;;;;;;15.29;76.24;101297.44;5050158;28;1145;-75
2023/07/22 00:41:28;;;;;;;;;;;;;;;15.29;75.98;101293.03;5050132;28;1144;-75
2023/07/22 00:43:54;;;;;;;;;;;;;;;15.25;76.48;101293.47;5054537;28;1023;-75
2023/07/22 00:46:19;;;;;;;;;;;;;;;15.26;76.13;101293.34;5049951;28;1092;-75
2023/07/22 00:48:45;;;;;;;;;;;;;;;15.28;76.27;101286.19;5037965;28;1310;-75
2023/07/22 00:51:10;;;;;;;;;;;;;;;15.30;75.68;101288.63;5056828;28;1151;-76
2023/07/22 00:53:35;;;;;;;;;;;;;;;15.32;75.76;101286.72;5055570;28;1906;-76
2023/07/22 00:56:00;;;;;;;;;;;;;;;15.31;75.52;101285.91;5048135;28;1261;-75
2023/07/22 00:58:26;;;;;;;;;;;;;;;15.28;75.58;101288.78;5040947;28;1339;-75
2023/07/22 01:00:52;;;;;;;;;;;;;;;15.26;75.62;101285.50;5049883;28;1309;-76
2023/07/22 01:03:18;;;;;;;;;;;;;;;15.21;75.96;101284.28;5046889;28;1172;-75
2023/07/22 01:05:44;;;;;;;;;;;;;;;15.22;76.01;101285.94;5052208;28;1098;-77
2023/07/22 01:08:09;;;;;;;;;;;;;;;15.17;75.94;101278.53;5031889;28;2017;-75
2023/07/22 01:10:35;;;;;;;;;;;;;;;15.12;76.09;101278.13;5049966;28;1096;-75
2023/07/22 01:13:00;;;;;;;;;;;;;;;15.06;76.17;101276.09;5052537;28;1913;-75
2023/07/22 01:15:25;;;;;;;;;;;;;;;15.02;76.37;101275.53;5027864;28;2394;-75
2023/07/22 01:17:51;;;;;;;;;;;;;;;15.00;76.61;101281.88;5055449;28;1307;-75
2023/07/22 01:20:18;;;;;;;;;;;;;;;15.00;76.45;101274.03;5050323;28;1327;-75
2023/07/22 01:22:50;;;;;;;;;;;;;;;14.97;76.85;101272.56;5044493;28;1273;-76
2023/07/22 01:25:15;;;;;;;;;;;;;;;14.96;76.89;101270.88;5043481;28;1218;-76
2023/07/22 01:27:41;;;;;;;;;;;;;;;14.91;76.80;101262.69;5047464;28;1281;-76
2023/07/22 01:30:28;;;;;;;;;;;;;;;14.90;76.70;101268.03;5046401;28;1743;-77
2023/07/22 01:32:53;;;;;;;;;;;;;;;14.88;76.98;101263.78;5042682;28;1910;-76
2023/07/22 01:35:19;;;;;;;;;;;;;;;14.85;76.91;101261.47;5049101;28;1418;-76
2023/07/22 01:37:44;;;;;;;;;;;;;;;14.85;77.06;101261.47;5044158;28;1259;-76
2023/07/22 01:40:13;;;;;;;;;;;;;;;14.85;77.21;101258.84;5022828;28;1281;-76
2023/07/22 01:42:39;;;;;;;;;;;;;;;14.82;77.24;101259.13;5051573;28;1185;-77
2023/07/22 01:45:07;;;;;;;;;;;;;;;14.81;77.44;101262.69;5045797;28;1391;-76
2023/07/22 01:47:32;;;;;;;;;;;;;;;14.78;77.64;101257.75;5047929;28;1261;-76
2023/07/22 01:49:58;;;;;;;;;;;;;;;14.77;77.69;101257.91;5049396;28;1334;-76
2023/07/22 01:52:23;;;;;;;;;;;;;;;14.76;77.74;101264.91;5056573;28;1894;-76
2023/07/22 01:54:48;;;;;;;;;;;;;;;14.74;77.91;101255.59;5027046;28;1662;-75
2023/07/22 01:57:14;;;;;;;;;;;;;;;14.72;77.89;101245.25;5047820;28;1507;-76
2023/07/22 01:59:39;;;;;;;;;;;;;;;14.71;78.09;101255.84;5054363;28;1274;-75
2023/07/22 02:02:05;;;;;;;;;;;;;;;14.71;77.88;101255.84;5035974;28;1534;-75
2023/07/22 02:04:30;;;;;;;;;;;;;;;14.72;78.15;101254.88;5033370;28;1176;-75
2023/07/22 02:06:56;;;;;;;;;;;;;;;14.70;78.01;101249.81;5050020;28;1201;-75
2023/07/22 02:09:21;;;;;;;;;;;;;;;14.71;78.07;101254.06;5049259;28;1205;-77
2023/07/22 02:11:46;;;;;;;;;;;;;;;14.69;78.23;101248.19;5033162;28;1957;-78
2023/07/22 02:14:11;;;;;;;;;;;;;;;14.68;78.16;101249.13;5053058;28;1260;-76
2023/07/22 02:16:36;;;;;;;;;;;;;;;14.66;78.55;101251.06;5046898;28;1232;-75
2023/07/22 02:19:02;;;;;;;;;;;;;;;14.64;78.85;101245.16;5047940;28;1677;-75
2023/07/22 02:21:28;;;;;;;;;;;;;;;14.62;78.87;101247.06;5047792;28;1085;-75
2023/07/22 02:23:53;;;;;;;;;;;;;;;14.60;79.03;101241.19;5045354;28;1215;-77
2023/07/22 02:26:19;;;;;;;;;;;;;;;14.61;79.01;101245.44;5050754;28;1036;-75
2023/07/22 02:28:44;;;;;;;;;;;;;;;14.63;78.67;101243.53;5051373;28;1304;-75
2023/07/22 02:31:10;;;;;;;;;;;;;;;14.62;78.78;101247.06;5047340;28;1083;-75
2023/07/22 02:33:36;;;;;;;;;;;;;;;14.58;79.31;101240.50;5050036;28;1961;-76
2023/07/22 02:36:01;;;;;;;;;;;;;;;14.57;79.42;101241.47;5045897;28;1153;-76
2023/07/22 02:38:26;;;;;;;;;;;;;;;14.55;79.51;101235.56;5046061;28;1375;-77
2023/07/22 02:40:51;;;;;;;;;;;;;;;14.55;79.34;101238.16;5048392;28;1389;-76
2023/07/22 02:43:17;;;;;;;;;;;;;;;14.54;79.50;101239.13;5048303;28;1284;-76
2023/07/22 02:45:42;;;;;;;;;;;;;;;14.56;79.72;101234.56;5026459;28;1337;-76
2023/07/22 02:48:07;;;;;;;;;;;;;;;14.59;79.50;101236.94;5054345;28;1299;-76
2023/07/22 02:50:32;;;;;;;;;;;;;;;14.56;79.42;101237.19;5062897;28;1420;-75
2023/07/22 02:52:58;;;;;;;;;;;;;;;14.51;79.76;101239.44;5058006;28;1973;-76
2023/07/22 02:55:23;;;;;;;;;;;;;;;14.52;80.01;101244.50;5047610;28;1197;-76
2023/07/22 02:57:49;;;;;;;;;;;;;;;14.55;80.23;101238.16;5056597;28;1248;-76
2023/07/22 03:00:24;;;;;;;;;;;;;;;14.57;79.99;101233.66;5038048;28;1384;-77
2023/07/22 03:02:52;;;;;;;;;;;;;;;14.57;80.23;101238.88;5052264;28;1257;-76
2023/07/22 03:05:17;;;;;;;;;;;;;;;14.55;79.59;101243.38;5032059;28;1370;-76
2023/07/22 03:07:42;;;;;;;;;;;;;;;14.52;80.05;101231.44;5046960;28;927;-75
2023/07/22 03:10:08;;;;;;;;;;;;;;;14.53;80.03;101242.72;5056282;28;1217;-75
2023/07/22 03:12:33;;;;;;;;;;;;;;;14.53;80.21;101237.50;5052529;28;1993;-75
2023/07/22 03:14:59;;;;;;;;;;;;;;;14.53;79.96;101242.72;5054425;28;993;-75
2023/07/22 03:17:24;;;;;;;;;;;;;;;14.53;80.20;101253.16;5051306;28;1372;-75
2023/07/22 03:19:49;;;;;;;;;;;;;;;14.52;79.85;101246.28;5044629;28;1244;-75
2023/07/22 03:22:24;;;;;;;;;;;;;;;14.52;79.86;101257.56;5057476;28;1329;-76
2023/07/22 03:24:49;;;;;;;;;;;;;;;14.50;79.77;101256.84;5046158;28;2287;-75
2023/07/22 03:27:17;;;;;;;;;;;;;;;14.45;79.86;101251.22;5048925;28;1220;-75
2023/07/22 03:29:42;;;;;;;;;;;;;;;14.44;80.27;101254.75;5049806;28;1248;-75
2023/07/22 03:32:07;;;;;;;;;;;;;;;14.43;80.09;101257.53;5050220;28;1905;-75
2023/07/22 03:34:33;;;;;;;;;;;;;;;14.40;80.23;101258.63;5050413;28;1130;-75
2023/07/22 03:36:58;;;;;;;;;;;;;;;14.37;80.11;101256.28;5045326;28;1698;-75
2023/07/22 03:39:24;;;;;;;;;;;;;;;14.34;80.58;101260.03;5044561;28;1556;-75
2023/07/22 03:41:49;;;;;;;;;;;;;;;14.37;80.50;101247.66;5043816;28;1536;-75
2023/07/22 03:44:14;;;;;;;;;;;;;;;14.33;80.97;101253.13;5030705;28;1201;-77
2023/07/22 03:46:39;;;;;;;;;;;;;;;14.31;80.74;101254.25;5049454;28;1302;-75
2023/07/22 03:49:05;;;;;;;;;;;;;;;14.29;80.64;101256.19;5031822;28;1716;-75
2023/07/22 03:51:30;;;;;;;;;;;;;;;14.25;80.75;101250.41;5047709;28;1224;-75
2023/07/22 03:53:55;;;;;;;;;;;;;;;14.22;80.88;101255.91;5054948;28;1909;-76
2023/07/22 03:56:21;;;;;;;;;;;;;;;14.19;81.08;101256.16;5049380;28;1200;-75
2023/07/22 03:58:46;;;;;;;;;;;;;;;14.16;81.28;101250.41;5050570;28;1503;-75
2023/07/22 04:01:11;;;;;;;;;;;;;;;14.14;81.20;101252.34;5044833;28;1286;-75
2023/07/22 04:03:37;;;;;;;;;;;;;;;14.12;81.35;101257.69;5057356;28;1110;-75
2023/07/22 04:06:02;;;;;;;;;;;;;;;14.11;81.62;101250.84;5049956;28;1248;-76
2023/07/22 04:08:27;;;;;;;;;;;;;;;14.11;81.47;101258.66;5034345;28;1204;-75
2023/07/22 04:10:53;;;;;;;;;;;;;;;14.12;81.53;101259.47;5034936;28;1302;-75
2023/07/22 04:13:19;;;;;;;;;;;;;;;14.12;81.42;101260.31;5046955;28;1894;-75
2023/07/22 04:15:44;;;;;;;;;;;;;;;14.10;81.32;101262.19;5043665;28;1299;-75
2023/07/22 04:18:09;;;;;;;;;;;;;;;14.10;81.28;101262.19;5028983;28;1277;-75
2023/07/22 04:20:34;;;;;;;;;;;;;;;14.10;81.50;101254.38;5032363;28;1543;-76
2023/07/22 04:22:59;;;;;;;;;;;;;;;14.09;81.57;101256.16;5044339;28;1062;-75
2023/07/22 04:25:25;;;;;;;;;;;;;;;14.09;81.48;101257.94;5046493;28;979;-75
2023/07/22 04:27:50;;;;;;;;;;;;;;;14.10;81.50;101257.00;5050416;28;1072;-76
2023/07/22 04:30:20;;;;;;;;;;;;;;;14.04;81.60;101262.75;5045862;28;1090;-75
2023/07/22 04:32:46;;;;;;;;;;;;;;;13.98;81.93;101253.69;5032336;28;1883;-75
2023/07/22 04:35:11;;;;;;;;;;;;;;;13.99;82.06;101260.59;5038078;28;1802;-75
2023/07/22 04:37:36;;;;;;;;;;;;;;;14.00;81.97;101271.84;5045348;28;1276;-76
2023/07/22 04:40:05;;;;;;;;;;;;;;;14.01;82.23;101257.81;5046959;28;1369;-75
2023/07/22 04:42:31;;;;;;;;;;;;;;;14.05;82.10;101267.03;5048722;28;1145;-75
2023/07/22 04:44:56;;;;;;;;;;;;;;;14.04;81.98;101273.19;5047860;28;1127;-75
2023/07/22 04:47:21;;;;;;;;;;;;;;;14.02;82.00;101262.06;5049893;28;1514;-75
2023/07/22 04:49:46;;;;;;;;;;;;;;;14.02;82.30;101262.91;5051367;28;1149;-75
2023/07/22 04:52:12;;;;;;;;;;;;;;;14.03;82.30;101256.72;5050206;28;1898;-75
2023/07/22 04:54:37;;;;;;;;;;;;;;;14.04;82.31;101265.38;5047564;28;1049;-75
2023/07/22 04:57:02;;;;;;;;;;;;;;;14.03;82.39;101268.94;5048862;28;1288;-77
2023/07/22 04:59:28;;;;;;;;;;;;;;;14.05;82.42;101264.44;5030383;28;1264;-76
2023/07/22 05:01:53;;;;;;;;;;;;;;;14.09;82.54;101265.78;5027470;28;1260;-75
2023/07/22 05:04:18;;;;;;;;;;;;;;;14.06;81.80;101260.84;5050586;28;1261;-75
2023/07/22 05:06:43;;;;;;;;;;;;;;;14.07;82.37;101262.50;5052441;28;1406;-76
2023/07/22 05:09:09;;;;;;;;;;;;;;;14.07;82.19;101257.28;5048022;28;1491;-75
2023/07/22 05:11:34;;;;;;;;;;;;;;;14.05;82.36;101261.81;5047847;28;1161;-75
2023/07/22 05:13:59;;;;;;;;;;;;;;;14.05;82.27;101259.22;5036152;28;1906;-75
2023/07/22 05:16:24;;;;;;;;;;;;;;;14.06;82.35;101260.84;5044852;28;1333;-75
2023/07/22 05:18:49;;;;;;;;;;;;;;;14.04;82.37;101265.38;5050343;28;1275;-75
2023/07/22 05:21:15;;;;;;;;;;;;;;;14.08;82.25;101264.13;5052717;28;1280;-76
2023/07/22 05:23:40;;;;;;;;;;;;;;;14.09;82.99;101265.78;5035697;28;1342;-75
2023/07/22 05:26:05;;;;;;;;;;;;;;;14.11;82.48;101269.09;5048541;28;1483;-76
2023/07/22 05:28:30;;;;;;;;;;;;;;;14.12;82.46;101272.53;5052140;28;1182;-75
2023/07/22 05:30:56;;;;;;;;;;;;;;;14.11;82.32;101269.09;5047621;28;1220;-76
2023/07/22 05:33:21;;;;;;;;;;;;;;;14.12;82.29;101268.13;5046719;28;1948;-76
2023/07/22 05:35:46;;;;;;;;;;;;;;;14.10;82.45;101272.63;5044765;28;1197;-75
2023/07/22 05:38:11;;;;;;;;;;;;;;;14.12;82.18;101273.34;5049900;28;1213;-75
2023/07/22 05:40:37;;;;;;;;;;;;;;;14.16;82.49;101273.88;5035106;28;1368;-75
2023/07/22 05:43:02;;;;;;;;;;;;;;;14.19;82.50;101277.03;5029379;28;1302;-76
2023/07/22 05:45:28;;;;;;;;;;;;;;;14.22;82.52;101276.78;5043263;28;1282;-76
2023/07/22 05:47:53;;;;;;;;;;;;;;;14.27;82.58;101271.94;5047143;28;1644;-76
2023/07/22 05:50:18;;;;;;;;;;;;;;;14.34;82.59;101280.06;5032942;28;1118;-75
2023/07/22 05:52:43;;;;;;;;;;;;;;;14.41;82.86;101275.13;5046708;28;1897;-75
2023/07/22 05:55:09;;;;;;;;;;;;;;;14.48;82.73;101278.84;5026242;28;1232;-75
2023/07/22 05:57:34;;;;;;;;;;;;;;;14.53;81.90;101274.03;5048300;28;1173;-75
2023/07/22 06:00:00;;;;;;;;;;;;;;;14.57;82.37;101275.41;5045577;28;1200;-75
2023/07/22 06:02:25;;;;;;;;;;;;;;;14.64;82.95;101270.44;5048579;28;1495;-75
2023/07/22 06:04:50;;;;;;;;;;;;;;;14.66;82.58;101269.31;5047178;28;1228;-76
2023/07/22 06:07:15;;;;;;;;;;;;;;;14.70;82.27;101269.88;5045727;28;1347;-76
2023/07/22 06:09:40;;;;;;;;;;;;;;;14.72;81.97;101260.94;5045473;28;1506;-76
2023/07/22 06:12:06;;;;;;;;;;;;;;;14.76;82.09;101262.31;5032319;28;1985;-76
2023/07/22 06:14:31;;;;;;;;;;;;;;;14.80;81.92;101261.06;5038674;28;1329;-75
2023/07/22 06:16:57;;;;;;;;;;;;;;;14.84;81.82;101261.59;5048319;28;1223;-75
2023/07/22 06:19:23;;;;;;;;;;;;;;;14.89;82.52;101259.38;5045189;28;1149;-75
2023/07/22 06:21:48;;;;;;;;;;;;;;;14.94;82.19;101258.94;5043425;28;1277;-76
2023/07/22 06:24:13;;;;;;;;;;;;;;;14.98;82.20;101255.09;5047430;28;1075;-75
2023/07/22 06:26:39;;;;;;;;;;;;;;;15.01;82.22;101253.00;5030629;28;1179;-76
2023/07/22 06:29:04;;;;;;;;;;;;;;;15.04;81.59;101262.34;5044307;28;1075;-77
2023/07/22 06:31:30;;;;;;;;;;;;;;;15.06;82.13;101253.41;5051839;28;1511;-75
2023/07/22 06:33:56;;;;;;;;;;;;;;;15.11;82.05;101258.19;5048191;28;1922;-76
2023/07/22 06:36:22;;;;;;;;;;;;;;;15.19;81.83;101260.06;5045898;28;1279;-76
2023/07/22 06:38:47;;;;;;;;;;;;;;;15.26;82.22;101255.94;5048456;28;1244;-77
2023/07/22 06:41:12;;;;;;;;;;;;;;;15.33;82.38;101242.13;5048157;28;1259;-76
2023/07/22 06:43:37;;;;;;;;;;;;;;;15.40;82.19;101243.19;5048484;28;1038;-76
2023/07/22 06:46:03;;;;;;;;;;;;;;;15.50;82.34;101243.16;5025557;28;1467;-75
2023/07/22 06:48:28;;;;;;;;;;;;;;;15.61;82.67;101244.72;5030130;28;1359;-75
2023/07/22 06:50:53;;;;;;;;;;;;;;;15.70;82.07;101254.31;5051904;28;1192;-76
2023/07/22 06:53:18;;;;;;;;;;;;;;;15.77;82.04;101255.41;5036032;28;1969;-76
2023/07/22 06:55:51;;;;;;;;;;;;;;;15.84;81.93;101253.00;5024397;28;1249;-76
2023/07/22 06:58:16;;;;;;;;;;;;;;;15.85;81.86;101242.38;5038304;28;1173;-78
2023/07/22 07:00:41;;;;;;;;;;;;;;;15.91;81.87;101240.97;5046407;28;1344;-76
2023/07/22 07:03:06;;;;;;;;;;;;;;;15.97;81.47;101236.94;5049010;28;1221;-77
2023/07/22 07:05:31;;;;;;;;;;;;;;;16.01;81.91;101235.66;5048075;28;1220;-76
2023/07/22 07:07:57;;;;;;;;;;;;;;;16.06;81.62;101238.66;5038653;28;1236;-76
2023/07/22 07:10:22;;;;;;;;;;;;;;;16.09;81.32;101233.09;5043961;28;1388;-76
2023/07/22 07:12:47;;;;;;;;;;;;;;;16.12;81.75;101241.47;5029642;28;1997;-77
2023/07/22 07:15:12;;;;;;;;;;;;;;;16.17;82.00;101244.47;5053431;28;1325;-76
2023/07/22 07:17:37;;;;;;;;;;;;;;;16.26;81.83;101247.97;5060543;28;1056;-76
2023/07/22 07:20:03;;;;;;;;;;;;;;;16.30;81.33;101246.69;5051339;28;1323;-76
2023/07/22 07:22:28;;;;;;;;;;;;;;;16.37;81.54;101246.91;5060640;28;1081;-76
2023/07/22 07:24:53;;;;;;;;;;;;;;;16.40;81.12;101244.81;5051632;28;1268;-77
2023/07/22 07:27:18;;;;;;;;;;;;;;;16.45;80.74;101245.16;5054745;28;1396;-76
2023/07/22 07:29:43;;;;;;;;;;;;;;;16.52;81.17;101249.81;5048396;28;1464;-77
2023/07/22 07:32:09;;;;;;;;;;;;;;;16.59;80.63;101250.81;5055804;28;1906;-76
2023/07/22 07:34:34;;;;;;;;;;;;;;;16.65;80.95;101245.78;5049227;28;1291;-76
2023/07/22 07:36:59;;;;;;;;;;;;;;;16.72;80.64;101246.00;5046128;28;1698;-76
2023/07/22 07:39:24;;;;;;;;;;;;;;;16.76;80.54;101242.13;5051831;28;1274;-76
2023/07/22 07:41:49;;;;;;;;;;;;;;;16.80;80.45;101238.19;5056741;28;1200;-76
2023/07/22 07:44:14;;;;;;;;;;;;;;;16.87;80.61;101239.22;5047266;28;1320;-76
2023/07/22 07:46:40;;;;;;;;;;;;;;;16.95;80.18;101247.13;5052172;28;1574;-76
2023/07/22 07:49:05;;;;;;;;;;;;;;;17.03;80.00;101237.66;5029969;28;1370;-76
2023/07/22 07:51:31;;;;;;;;;;;;;;;17.12;79.86;101237.53;5050461;28;1263;-76
2023/07/22 07:53:58;;;;;;;;;;;;;;;17.21;79.48;101241.84;5030449;28;1961;-76
2023/07/22 07:56:23;;;;;;;;;;;;;;;17.30;79.75;101240.06;5047878;28;1169;-76
2023/07/22 07:58:49;;;;;;;;;;;;;;;17.38;78.86;101242.72;5052224;28;1197;-76
2023/07/22 08:01:15;;;;;;;;;;;;;;;17.42;78.21;101235.34;5039204;28;1252;-76
2023/07/22 08:03:44;;;;;;;;;;;;;;;17.44;78.24;101242.09;5032936;28;1380;-76
2023/07/22 08:06:10;;;;;;;;;;;;;;;17.46;78.36;101234.88;5033274;28;1419;-76
2023/07/22 08:08:35;;;;;;;;;;;;;;;17.51;77.97;101235.22;5048699;28;1247;-78
2023/07/22 08:11:07;;;;;;;;;;;;;;;17.50;77.28;101241.44;5047767;28;1292;-76
2023/07/22 08:13:33;;;;;;;;;;;;;;;17.55;77.27;101237.50;5033521;28;2281;-76
2023/07/22 08:15:59;;;;;;;;;;;;;;;17.58;77.57;101237.19;5047149;28;1266;-76
2023/07/22 08:18:24;;;;;;;;;;;;;;;17.63;76.97;101245.41;5047235;28;1256;-76
2023/07/22 08:20:53;;;;;;;;;;;;;;;17.68;76.94;101243.13;5055758;28;1221;-76
2023/07/22 08:23:19;;;;;;;;;;;;;;;17.71;76.77;101242.78;5049170;28;1230;-77
2023/07/22 08:25:44;;;;;;;;;;;;;;;17.76;76.05;101240.53;5048539;28;1247;-77
2023/07/22 08:28:09;;;;;;;;;;;;;;;17.78;76.31;101243.81;5024035;28;1479;-77
2023/07/22 08:30:35;;;;;;;;;;;;;;;17.82;76.34;101239.06;5046783;28;1132;-78
2023/07/22 08:33:00;;;;;;;;;;;;;;;17.84;75.92;101248.44;5047543;28;1973;-76
2023/07/22 08:35:26;;;;;;;;;;;;;;;17.87;75.29;101247.28;5050657;28;1103;-77
2023/07/22 08:37:51;;;;;;;;;;;;;;;17.91;75.49;101249.41;5053752;28;1308;-77
2023/07/22 08:40:16;;;;;;;;;;;;;;;17.97;75.39;101247.94;5048505;28;1136;-76
2023/07/22 08:42:42;;;;;;;;;;;;;;;17.97;75.22;101246.13;5052274;28;1173;-77
2023/07/22 08:45:09;;;;;;;;;;;;;;;18.04;75.33;101244.50;5048682;28;1097;-77
2023/07/22 08:47:37;;;;;;;;;;;;;;;18.10;75.19;101253.50;5031653;28;1363;-76
2023/07/22 08:50:04;;;;;;;;;;;;;;;18.16;74.83;101241.53;5032871;28;1294;-76
2023/07/22 08:52:29;;;;;;;;;;;;;;;18.25;75.05;101245.81;5046876;28;1996;-79
2023/07/22 08:54:54;;;;;;;;;;;;;;;18.32;74.33;101241.53;5045555;28;1279;-77
2023/07/22 08:57:20;;;;;;;;;;;;;;;18.38;74.18;101245.31;5038823;28;1606;-77
2023/07/22 08:59:46;;;;;;;;;;;;;;;18.42;73.91;101244.81;5024159;28;1339;-76
2023/07/22 09:02:12;;;;;;;;;;;;;;;18.47;73.50;101244.31;5049500;28;1280;-76
2023/07/22 09:04:38;;;;;;;;;;;;;;;18.49;72.97;101243.16;5051860;28;1226;-77
2023/07/22 09:07:03;;;;;;;;;;;;;;;18.53;73.27;101243.66;5026990;28;1750;-76
2023/07/22 09:09:28;;;;;;;;;;;;;;;18.55;73.45;101250.38;5049828;28;1221;-76
2023/07/22 09:11:55;;;;;;;;;;;;;;;18.58;72.72;101244.78;5047706;28;1946;-76
2023/07/22 09:14:20;;;;;;;;;;;;;;;18.58;73.11;101247.41;5051924;28;1237;-76
2023/07/22 09:16:45;;;;;;;;;;;;;;;18.60;72.70;101255.13;5040151;28;1473;-77
2023/07/22 09:19:11;;;;;;;;;;;;;;;18.58;72.57;101247.41;5047179;28;1016;-76
2023/07/22 09:21:58;;;;;;;;;;;;;;;18.57;72.21;101251.00;5046067;28;1574;-76
2023/07/22 09:24:25;;;;;;;;;;;;;;;18.58;71.69;101251.84;5050818;28;1181;-77
2023/07/22 09:26:51;;;;;;;;;;;;;;;18.62;71.98;101247.06;5042870;28;1590;-76
2023/07/22 09:29:16;;;;;;;;;;;;;;;18.65;71.73;101241.50;5049798;28;1263;-76
2023/07/22 09:31:52;;;;;;;;;;;;;;;18.73;71.75;101244.13;5045891;28;1236;-76
2023/07/22 09:34:17;;;;;;;;;;;;;;;18.71;71.29;101240.84;5046830;28;2635;-77
2023/07/22 09:36:53;;;;;;;;;;;;;;;18.75;70.87;101236.88;5053456;28;1263;-76
2023/07/22 09:39:18;;;;;;;;;;;;;;;18.80;71.10;101239.81;5032319;28;1268;-77
2023/07/22 09:41:43;;;;;;;;;;;;;;;18.87;70.56;101240.81;5042611;28;1208;-76
2023/07/22 09:44:14;;;;;;;;;;;;;;;18.92;70.81;101238.47;5044899;28;1201;-77
2023/07/22 09:46:39;;;;;;;;;;;;;;;18.98;70.14;101240.44;5050910;28;1307;-76
2023/07/22 09:49:07;;;;;;;;;;;;;;;19.03;69.96;101232.03;5045031;28;1236;-77
2023/07/22 09:51:36;;;;;;;;;;;;;;;19.06;69.81;101237.78;5031160;28;1328;-77
2023/07/22 09:54:03;;;;;;;;;;;;;;;19.13;70.29;101237.09;5041674;28;2003;-77
2023/07/22 09:56:28;;;;;;;;;;;;;;;19.16;69.00;101236.75;5048142;28;1267;-76
2023/07/22 09:58:54;;;;;;;;;;;;;;;19.20;68.85;101230.97;5046021;28;1224;-76
2023/07/22 10:01:20;;;;;;;;;;;;;;;19.25;68.39;101235.72;5046890;28;1172;-77
2023/07/22 10:03:46;;;;;;;;;;;;;;;19.28;67.96;101236.19;5032269;28;1291;-77
2023/07/22 10:06:12;;;;;;;;;;;;;;;19.34;68.41;101239.97;5043837;28;1200;-77
2023/07/22 10:08:38;;;;;;;;;;;;;;;19.35;67.99;101229.25;5043385;28;1060;-77
2023/07/22 10:11:05;;;;;;;;;;;;;;;19.40;67.53;101231.38;5040889;28;1621;-77
2023/07/22 10:13:30;;;;;;;;;;;;;;;19.43;67.96;101231.00;5047925;28;1898;-77
2023/07/22 10:15:56;;;;;;;;;;;;;;;19.50;67.64;101231.97;5026651;28;1253;-77
2023/07/22 10:18:21;;;;;;;;;;;;;;;19.47;67.46;101226.22;5037499;28;1346;-76
2023/07/22 10:20:47;;;;;;;;;;;;;;;19.50;67.10;101229.34;5045651;28;1287;-76
2023/07/22 10:23:14;;;;;;;;;;;;;;;19.52;66.67;101223.91;5042180;28;1690;-76
2023/07/22 10:25:39;;;;;;;;;;;;;;;19.50;65.72;101226.72;5050081;28;1089;-77
2023/07/22 10:28:05;;;;;;;;;;;;;;;19.53;66.41;101221.09;5041701;28;1241;-76
2023/07/22 10:30:31;;;;;;;;;;;;;;;19.51;66.10;101228.34;5045682;28;1088;-76
2023/07/22 10:32:56;;;;;;;;;;;;;;;19.48;65.76;101228.69;5046481;28;1961;-77
2023/07/22 10:35:25;;;;;;;;;;;;;;;19.47;65.81;101231.50;5043559;28;1141;-77
2023/07/22 10:37:52;;;;;;;;;;;;;;;19.44;65.29;101227.41;5047011;28;1077;-76
2023/07/22 10:40:28;;;;;;;;;;;;;;;19.44;64.20;101222.16;5044025;28;1081;-77
2023/07/22 10:42:58;;;;;;;;;;;;;;;19.46;64.12;101214.91;5046597;28;1037;-76
2023/07/22 10:45:31;;;;;;;;;;;;;;;19.48;63.68;101218.16;5044079;28;1127;-76
2023/07/22 10:48:00;;;;;;;;;;;;;;;19.51;64.73;101212.56;5042083;28;1067;-76
2023/07/22 10:50:37;;;;;;;;;;;;;;;19.52;63.94;101206.31;5032626;28;1186;-76
2023/07/22 10:53:02;;;;;;;;;;;;;;;19.50;64.06;101208.31;5040865;28;1967;-76
2023/07/22 10:55:27;;;;;;;;;;;;;;;19.54;64.09;101222.72;5029378;28;1737;-76
2023/07/22 10:57:55;;;;;;;;;;;;;;;19.57;64.04;101217.13;5050486;28;1157;-77
2023/07/22 11:00:21;;;;;;;;;;;;;;;19.58;64.21;101218.78;5028313;28;1230;-77
2023/07/22 11:02:47;;;;;;;;;;;;;;;19.66;64.03;101211.84;5039207;28;1096;-76
2023/07/22 11:05:16;;;;;;;;;;;;;;;19.67;64.00;101210.84;5049404;28;1185;-76
2023/07/22 11:07:51;;;;;;;;;;;;;;;19.71;63.04;101204.22;5047136;28;1201;-76
2023/07/22 11:10:18;;;;;;;;;;;;;;;19.73;63.26;101187.28;5050392;28;1130;-76
2023/07/22 11:12:47;;;;;;;;;;;;;;;19.80;63.30;101195.28;5033121;28;1959;-76
2023/07/22 11:15:15;;;;;;;;;;;;;;;19.90;63.61;101190.63;5032283;28;1486;-76
2023/07/22 11:17:40;;;;;;;;;;;;;;;20.02;62.81;101194.44;5048851;28;1476;-77
2023/07/22 11:20:05;;;;;;;;;;;;;;;20.04;62.46;101196.91;5030876;28;1286;-76
2023/07/22 11:22:30;;;;;;;;;;;;;;;20.05;62.71;101188.81;5050061;28;1186;-76
2023/07/22 11:24:57;;;;;;;;;;;;;;;20.04;62.23;101189.00;5053519;28;1388;-77
2023/07/22 11:27:23;;;;;;;;;;;;;;;19.94;61.71;101186.59;5049600;28;1232;-76
2023/07/22 11:29:48;;;;;;;;;;;;;;;19.88;61.81;101187.31;5049688;28;1292;-77
2023/07/22 11:32:17;;;;;;;;;;;;;;;19.80;61.03;101184.75;5050175;28;1965;-76
2023/07/22 11:34:45;;;;;;;;;;;;;;;19.79;61.33;101183.13;5031685;28;1364;-76
2023/07/22 11:37:11;;;;;;;;;;;;;;;19.78;61.12;101176.19;5048725;28;1123;-77
2023/07/22 11:39:37;;;;;;;;;;;;;;;19.87;60.67;101185.69;5046301;28;1288;-76
2023/07/22 11:42:03;;;;;;;;;;;;;;;19.99;60.12;101179.00;5054333;28;980;-77
2023/07/22 11:44:29;;;;;;;;;;;;;;;20.08;59.32;101172.66;5046955;28;1273;-75
2023/07/22 11:46:57;;;;;;;;;;;;;;;20.21;59.95;101179.13;5056070;28;1268;-76
2023/07/22 11:49:24;;;;;;;;;;;;;;;20.43;59.28;101176.44;5051862;28;1328;-76
2023/07/22 11:51:49;;;;;;;;;;;;;;;20.56;57.63;101181.09;5056214;28;1307;-76
2023/07/22 11:54:17;;;;;;;;;;;;;;;20.64;58.25;101178.38;5032872;28;1890;-77
2023/07/22 11:56:42;;;;;;;;;;;;;;;20.68;57.28;101178.81;5052480;28;1000;-77
2023/07/22 11:59:08;;;;;;;;;;;;;;;20.62;57.73;101177.72;5052680;28;1269;-76
2023/07/22 12:01:33;;;;;;;;;;;;;;;20.60;58.26;101171.84;5051734;28;1224;-78
2023/07/22 12:03:58;;;;;;;;;;;;;;;20.48;57.96;101162.75;5036681;28;1599;-77
2023/07/22 12:06:27;;;;;;;;;;;;;;;20.43;57.40;101180.88;5050193;28;1318;-78
2023/07/22 12:08:52;;;;;;;;;;;;;;;20.27;57.34;101176.59;5038772;28;1198;-77
2023/07/22 12:11:18;;;;;;;;;;;;;;;20.17;57.65;101166.31;5053176;28;1171;-77
2023/07/22 12:13:50;;;;;;;;;;;;;;;20.08;57.42;101172.66;5054089;28;1902;-76
2023/07/22 12:16:20;;;;;;;;;;;;;;;19.99;56.38;101173.72;5047689;28;1375;-77
2023/07/22 12:18:46;;;;;;;;;;;;;;;19.93;57.24;101174.44;5029125;28;1483;-76
2023/07/22 12:21:11;;;;;;;;;;;;;;;19.85;57.52;101171.91;5029804;28;1252;-76
2023/07/22 12:23:37;;;;;;;;;;;;;;;19.80;57.50;101174.22;5049579;28;1212;-76
2023/07/22 12:26:03;;;;;;;;;;;;;;;19.74;57.90;101169.69;5057925;28;1203;-76
2023/07/22 12:28:28;;;;;;;;;;;;;;;19.72;58.24;101182.19;5054668;28;1271;-76
2023/07/22 12:30:53;;;;;;;;;;;;;;;19.72;58.07;101183.00;5050376;28;1273;-76
2023/07/22 12:33:19;;;;;;;;;;;;;;;19.71;58.13;101170.03;5047666;28;1898;-77
2023/07/22 12:35:44;;;;;;;;;;;;;;;19.74;57.96;101185.47;5042427;28;1272;-76
2023/07/22 12:38:10;;;;;;;;;;;;;;;19.79;57.92;101177.88;5050602;28;1241;-76
2023/07/22 12:40:35;;;;;;;;;;;;;;;19.89;57.83;101167.88;5038588;28;1222;-76